Mineral Springs, Pennsylvania
Current Conditions -  °F | °C
As of 9:54 AM on Saturday 20 Dec 2014 (Local Time) from KFIG Reporting Station
Overcast Overcast  
Wind Chill: 17°   Ceiling: 1500
Heat Index: 24°   Visibility: 10mi
Dew Point: 17°   Wind: 6mph
Humidity: 75%   Direction: 360°N
Pressure: 30.24"   Gusts: NA
Location:  41°N, 78.36°W
Report Text: KFIG 201454Z AUTO 36005KT 10SM OVC015 M04/M08 A3024 RMK AO2 SLP261 T10441083 50002
Loading
Personal Weather Stations






























Interactive Weather Map New forecast layout! Learn more

10-Day Weather Forecast

Advertisements
Track Severe Weather on mobile